createdAt,value
2022-11-16T00:00:18.970Z,101468.38
2022-11-16T00:02:48.248Z,101470.56
2022-11-16T00:05:15.809Z,101473.03
2022-11-16T00:07:43.071Z,101477.03
2022-11-16T00:10:11.502Z,101483.16
2022-11-16T00:12:39.626Z,101485.50
2022-11-16T00:15:07.184Z,101490.78
2022-11-16T00:17:34.449Z,101485.78
2022-11-16T00:20:01.951Z,101490.84
2022-11-16T00:22:29.188Z,101490.84
2022-11-16T00:24:56.504Z,101492.34
2022-11-16T00:27:23.892Z,101494.84
2022-11-16T00:29:51.272Z,101481.56
2022-11-16T00:32:18.526Z,101476.72
2022-11-16T00:34:45.835Z,101474.34
2022-11-16T00:37:13.133Z,101492.59
2022-11-16T00:39:40.690Z,101488.88
2022-11-16T00:42:08.012Z,101493.34
2022-11-16T00:44:35.312Z,101493.53
2022-11-16T00:47:02.735Z,101503.91
2022-11-16T00:49:30.196Z,101494.63
2022-11-16T00:51:57.744Z,101498.28
2022-11-16T00:54:25.325Z,101495.19
2022-11-16T00:56:52.781Z,101492.78
2022-11-16T00:59:20.308Z,101497.75
2022-11-16T01:01:47.747Z,101504.09
2022-11-16T01:04:15.263Z,101503.56
2022-11-16T01:06:43.598Z,101497.09
2022-11-16T01:09:11.071Z,101503.03
2022-11-16T01:11:57.039Z,101504.03
2022-11-16T01:14:24.398Z,101496.28
2022-11-16T01:16:51.669Z,101501.97
2022-11-16T01:19:20.877Z,101510.59
2022-11-16T01:21:48.356Z,101509.53
2022-11-16T01:24:15.716Z,101505.88
2022-11-16T01:26:43.119Z,101516.00
2022-11-16T01:29:10.462Z,101521.09
2022-11-16T01:31:41.681Z,101517.09
2022-11-16T01:34:09.843Z,101510.22
2022-11-16T01:36:37.284Z,101516.75
2022-11-16T01:39:05.793Z,101530.94
2022-11-16T01:41:43.828Z,101520.97
2022-11-16T01:44:29.683Z,101523.19
2022-11-16T01:47:00.148Z,101512.34
2022-11-16T01:49:28.726Z,101514.91
2022-11-16T01:51:59.612Z,101513.88
2022-11-16T01:54:29.506Z,101511.88
2022-11-16T01:57:01.920Z,101522.59
2022-11-16T01:59:36.834Z,101525.97
2022-11-16T02:02:06.278Z,101520.88
2022-11-16T02:04:34.869Z,101521.78
2022-11-16T02:07:06.385Z,101508.91
2022-11-16T02:09:52.956Z,101515.50
2022-11-16T02:12:21.684Z,101522.22
2022-11-16T02:15:09.949Z,101510.25
2022-11-16T02:17:56.802Z,101509.63
2022-11-16T02:20:44.592Z,101508.81
2022-11-16T02:23:27.202Z,101514.00
2022-11-16T02:26:14.732Z,101516.28
2022-11-16T02:29:00.548Z,101519.34
2022-11-16T02:31:29.963Z,101522.72
2022-11-16T02:33:59.323Z,101518.53
2022-11-16T02:36:27.110Z,101507.69
2022-11-16T02:39:01.327Z,101512.78
2022-11-16T02:41:31.734Z,101508.41
2022-11-16T02:44:08.908Z,101500.31
2022-11-16T02:46:39.412Z,101511.28
2022-11-16T02:49:11.918Z,101517.78
2022-11-16T02:51:42.253Z,101517.88
2022-11-16T02:54:12.899Z,101527.19
2022-11-16T02:56:52.107Z,101529.59
2022-11-16T02:59:26.039Z,101528.28
2022-11-16T03:02:13.616Z,101531.81
2022-11-16T03:04:44.352Z,101523.44
2022-11-16T03:07:14.310Z,101525.97
2022-11-16T03:09:43.030Z,101524.25
2022-11-16T03:12:12.374Z,101521.81
2022-11-16T03:14:43.106Z,101519.88
2022-11-16T03:17:16.246Z,101520.41
2022-11-16T03:20:04.560Z,101510.16
2022-11-16T03:22:45.285Z,101510.28
2022-11-16T03:25:14.277Z,101512.97
2022-11-16T03:27:56.944Z,101514.13
2022-11-16T03:30:25.839Z,101532.59
2022-11-16T03:33:24.920Z,101518.66
2022-11-16T03:35:59.508Z,101526.09
2022-11-16T03:38:28.587Z,101537.94
2022-11-16T03:41:00.083Z,101536.91
2022-11-16T03:43:28.112Z,101530.91
2022-11-16T03:45:56.459Z,101544.00
2022-11-16T03:48:24.251Z,101542.56
2022-11-16T03:50:52.311Z,101546.38
2022-11-16T03:53:20.307Z,101551.78
2022-11-16T03:55:49.942Z,101539.94
2022-11-16T03:58:18.761Z,101540.66
2022-11-16T04:00:46.727Z,101547.50
2022-11-16T04:03:14.260Z,101547.16
2022-11-16T04:06:00.260Z,101542.91
2022-11-16T04:08:46.251Z,101538.97
2022-11-16T04:11:34.171Z,101532.16
2022-11-16T04:14:20.430Z,101542.19
2022-11-16T04:17:16.905Z,101547.75
2022-11-16T04:20:02.629Z,101535.03
2022-11-16T04:22:51.288Z,101528.19
2022-11-16T04:25:23.668Z,101533.06
2022-11-16T04:28:11.393Z,101540.66
2022-11-16T04:30:58.448Z,101530.44
2022-11-16T04:33:44.544Z,101542.88
2022-11-16T04:36:31.172Z,101542.41
2022-11-16T04:38:59.027Z,101541.69
2022-11-16T04:41:45.032Z,101535.00
2022-11-16T04:44:13.416Z,101541.66
2022-11-16T04:46:59.266Z,101534.88
2022-11-16T04:49:27.074Z,101538.47
2022-11-16T04:51:56.988Z,101533.25
2022-11-16T04:54:24.573Z,101534.09
2022-11-16T04:56:51.776Z,101534.44
2022-11-16T04:59:19.114Z,101546.28
2022-11-16T05:02:05.171Z,101543.81
2022-11-16T05:04:32.761Z,101544.00
2022-11-16T05:07:00.093Z,101545.75
2022-11-16T05:09:27.559Z,101543.66
2022-11-16T05:11:54.768Z,101539.75
2022-11-16T05:14:22.267Z,101544.38
2022-11-16T05:16:50.067Z,101549.59
2022-11-16T05:19:36.482Z,101551.91
2022-11-16T05:22:03.822Z,101554.47
2022-11-16T05:24:34.186Z,101545.88
2022-11-16T05:27:02.968Z,101551.63
2022-11-16T05:29:31.042Z,101542.94
2022-11-16T05:31:59.128Z,101553.31
2022-11-16T05:34:27.699Z,101557.81
2022-11-16T05:36:55.079Z,101549.81
2022-11-16T05:39:22.854Z,101555.75
2022-11-16T05:41:52.350Z,101561.84
2022-11-16T05:44:20.136Z,101562.91
2022-11-16T05:46:48.710Z,101558.63
2022-11-16T05:49:18.167Z,101559.88
2022-11-16T05:51:46.355Z,101556.94
2022-11-16T05:54:20.033Z,101560.94
2022-11-16T05:56:48.678Z,101551.56
2022-11-16T05:59:18.892Z,101559.16
2022-11-16T06:01:48.350Z,101550.19
2022-11-16T06:04:16.321Z,101559.41
2022-11-16T06:06:43.589Z,101563.84
2022-11-16T06:09:12.736Z,101556.78
2022-11-16T06:11:40.193Z,101565.19
2022-11-16T06:14:08.107Z,101569.88
2022-11-16T06:16:36.863Z,101563.06
2022-11-16T06:19:07.698Z,101573.31
2022-11-16T06:21:35.207Z,101566.31
2022-11-16T06:24:09.224Z,101569.13
2022-11-16T06:26:37.220Z,101565.09
2022-11-16T06:29:05.029Z,101569.72
2022-11-16T06:31:33.511Z,101575.44
2022-11-16T06:34:02.692Z,101565.44
2022-11-16T06:36:30.095Z,101573.59
2022-11-16T06:39:00.152Z,101580.00
2022-11-16T06:41:29.097Z,101575.69
2022-11-16T06:43:56.881Z,101570.16
2022-11-16T06:46:30.616Z,101569.97
2022-11-16T06:48:58.131Z,101564.25
2022-11-16T06:51:26.159Z,101565.38
2022-11-16T06:53:53.505Z,101572.03
2022-11-16T06:56:21.995Z,101573.59
2022-11-16T06:58:55.912Z,101581.72
2022-11-16T07:01:24.658Z,101574.00
2022-11-16T07:03:57.268Z,101581.97
2022-11-16T07:06:24.952Z,101577.34
2022-11-16T07:08:52.354Z,101580.19
2022-11-16T07:11:24.777Z,101585.56
2022-11-16T07:13:52.727Z,101580.28
2022-11-16T07:16:22.117Z,101579.59
2022-11-16T07:18:59.336Z,101579.19
2022-11-16T07:21:29.267Z,101579.47
2022-11-16T07:23:57.797Z,101575.34
2022-11-16T07:26:25.159Z,101574.16
2022-11-16T07:29:03.749Z,101580.03
2022-11-16T07:31:32.734Z,101585.56
2022-11-16T07:34:31.971Z,101574.84
2022-11-16T07:37:08.537Z,101578.72
2022-11-16T07:39:35.798Z,101581.19
2022-11-16T07:42:08.066Z,101592.91
2022-11-16T07:44:54.087Z,101586.53
2022-11-16T07:47:21.484Z,101584.53
2022-11-16T07:49:49.919Z,101583.69
2022-11-16T07:52:20.074Z,101586.59
2022-11-16T07:55:10.345Z,101586.91
2022-11-16T07:57:38.636Z,101587.56
2022-11-16T08:00:09.514Z,101584.84
2022-11-16T08:02:48.196Z,101582.91
2022-11-16T08:05:19.056Z,101591.16
2022-11-16T08:07:48.775Z,101597.25
2022-11-16T08:10:16.999Z,101593.34
2022-11-16T08:12:44.507Z,101602.84
2022-11-16T08:15:11.960Z,101593.09
2022-11-16T08:17:39.429Z,101606.41
2022-11-16T08:20:09.702Z,101606.34
2022-11-16T08:22:36.967Z,101599.09
2022-11-16T08:25:04.698Z,101583.97
2022-11-16T08:27:32.586Z,101586.31
2022-11-16T08:30:00.026Z,101592.94
2022-11-16T08:32:29.812Z,101590.38
2022-11-16T08:34:57.473Z,101588.78
2022-11-16T08:37:26.136Z,101595.00
2022-11-16T08:39:54.747Z,101584.84
2022-11-16T08:42:22.084Z,101586.19
2022-11-16T08:44:50.120Z,101583.91
2022-11-16T08:47:20.183Z,101579.00
2022-11-16T08:49:51.362Z,101578.91
2022-11-16T08:52:20.895Z,101572.63
2022-11-16T08:54:50.377Z,101569.25
2022-11-16T08:57:18.238Z,101582.66
2022-11-16T08:59:48.858Z,101577.88
2022-11-16T09:02:16.179Z,101561.72
2022-11-16T09:04:43.929Z,101570.22
2022-11-16T09:07:11.430Z,101572.75
2022-11-16T09:09:38.746Z,101572.19
2022-11-16T09:12:06.115Z,101581.72
2022-11-16T09:14:33.453Z,101586.31
2022-11-16T09:17:00.847Z,101578.66
2022-11-16T09:19:28.070Z,101583.63
2022-11-16T09:21:55.722Z,101580.94
2022-11-16T09:24:22.936Z,101586.69
2022-11-16T09:26:50.486Z,101582.22
2022-11-16T09:29:17.822Z,101577.13
2022-11-16T09:31:45.819Z,101583.13
2022-11-16T09:34:13.076Z,101580.53
2022-11-16T09:36:40.559Z,101578.56
2022-11-16T09:39:29.579Z,101583.13
2022-11-16T09:42:03.988Z,101574.16
2022-11-16T09:44:37.956Z,101574.69
2022-11-16T09:47:09.612Z,101565.09
2022-11-16T09:49:39.916Z,101570.00
2022-11-16T09:52:11.434Z,101567.91
2022-11-16T09:54:41.048Z,101563.53
2022-11-16T09:57:12.795Z,101564.69
2022-11-16T09:59:46.040Z,101563.78
2022-11-16T10:02:27.886Z,101568.66
2022-11-16T10:05:14.605Z,101556.69
2022-11-16T10:07:46.727Z,101563.69
2022-11-16T10:10:17.320Z,101552.59
2022-11-16T10:12:53.668Z,101551.13
2022-11-16T10:15:21.014Z,101553.00
2022-11-16T10:17:51.756Z,101555.84
2022-11-16T10:20:34.058Z,101561.25
2022-11-16T10:23:10.407Z,101555.91
2022-11-16T10:25:44.895Z,101543.16
2022-11-16T10:28:24.099Z,101543.31
2022-11-16T10:31:13.977Z,101541.91
2022-11-16T10:33:43.257Z,101537.47
2022-11-16T10:36:14.817Z,101546.81
2022-11-16T10:38:43.134Z,101552.63
2022-11-16T10:41:27.312Z,101550.16
2022-11-16T10:43:56.485Z,101551.97
2022-11-16T10:46:23.704Z,101555.25
2022-11-16T10:48:56.918Z,101550.66
2022-11-16T10:51:24.268Z,101540.47
2022-11-16T10:53:53.133Z,101555.31
2022-11-16T10:56:40.584Z,101556.47
2022-11-16T10:59:12.462Z,101542.13
2022-11-16T11:01:57.743Z,101545.72
2022-11-16T11:04:25.061Z,101539.00
2022-11-16T11:06:53.818Z,101545.34
2022-11-16T11:09:23.992Z,101546.78
2022-11-16T11:12:20.711Z,101532.19
2022-11-16T11:15:00.310Z,101537.44
2022-11-16T11:17:28.222Z,101523.94
2022-11-16T11:20:00.745Z,101524.81
2022-11-16T11:22:28.382Z,101522.19
2022-11-16T11:24:55.979Z,101533.88
2022-11-16T11:27:24.301Z,101524.06
2022-11-16T11:29:53.695Z,101530.34
2022-11-16T11:32:24.456Z,101525.72
2022-11-16T11:34:56.292Z,101530.38
2022-11-16T11:37:26.157Z,101524.03
2022-11-16T11:40:13.632Z,101527.72
2022-11-16T11:42:41.847Z,101517.72
2022-11-16T11:45:13.240Z,101512.47
2022-11-16T11:50:37.205Z,101515.00
2022-11-16T11:53:11.649Z,101510.28
2022-11-16T11:55:39.391Z,101514.25
2022-11-16T11:58:11.631Z,101514.38
2022-11-16T12:01:02.202Z,101516.09
2022-11-16T12:03:31.754Z,101507.16
2022-11-16T12:06:06.283Z,101501.59
2022-11-16T12:08:39.403Z,101507.25
2022-11-16T12:11:15.083Z,101514.59
2022-11-16T12:14:00.442Z,101515.69
2022-11-16T12:16:43.002Z,101510.25
2022-11-16T12:19:28.836Z,101512.81
2022-11-16T12:22:08.228Z,101514.06
2022-11-16T12:24:50.579Z,101511.91
2022-11-16T12:27:37.969Z,101514.47
2022-11-16T12:30:13.766Z,101513.59
2022-11-16T12:32:41.086Z,101515.53
2022-11-16T12:35:17.326Z,101514.69
2022-11-16T12:38:10.891Z,101510.88
2022-11-16T12:41:03.139Z,101516.94
2022-11-16T12:43:42.834Z,101517.44
2022-11-16T12:46:30.302Z,101520.66
2022-11-16T12:49:04.215Z,101523.97
2022-11-16T12:51:51.631Z,101534.13
2022-11-16T12:54:18.944Z,101529.16
2022-11-16T12:56:49.422Z,101531.25
2022-11-16T12:59:22.979Z,101518.59
2022-11-16T13:01:50.273Z,101525.59
2022-11-16T13:04:41.176Z,101534.22
2022-11-16T13:07:14.469Z,101532.47
2022-11-16T13:09:47.886Z,101536.84
2022-11-16T13:12:23.377Z,101534.56
2022-11-16T13:14:52.981Z,101525.72
2022-11-16T13:17:31.871Z,101536.31
2022-11-16T13:20:15.389Z,101527.59
2022-11-16T13:22:46.893Z,101544.03
2022-11-16T13:25:23.388Z,101533.38
2022-11-16T13:27:55.903Z,101535.47
2022-11-16T13:30:33.849Z,101527.34
2022-11-16T13:33:03.992Z,101538.91
2022-11-16T13:35:31.276Z,101540.53
2022-11-16T13:37:58.531Z,101530.63
2022-11-16T13:40:27.452Z,101539.97
2022-11-16T13:42:59.056Z,101546.03
2022-11-16T13:45:29.787Z,101541.84
2022-11-16T13:47:57.984Z,101544.38
2022-11-16T13:50:38.042Z,101544.84
2022-11-16T13:56:01.171Z,101541.59
2022-11-16T13:58:29.705Z,101551.75
2022-11-16T14:01:11.008Z,101541.84
2022-11-16T14:03:39.164Z,101551.25
2022-11-16T14:06:26.274Z,101559.91
2022-11-16T14:08:54.505Z,101556.91
2022-11-16T14:11:54.374Z,101558.44
2022-11-16T14:14:40.318Z,101560.34
2022-11-16T14:17:07.583Z,101549.72
2022-11-16T14:19:49.041Z,101555.75
2022-11-16T14:22:34.479Z,101542.72
2022-11-16T14:25:05.903Z,101546.69
2022-11-16T14:27:38.670Z,101552.53
2022-11-16T14:30:15.870Z,101555.47
2022-11-16T14:32:47.727Z,101551.97
2022-11-16T14:35:34.069Z,101547.81
2022-11-16T14:38:03.804Z,101549.16
2022-11-16T14:40:43.213Z,101556.53
2022-11-16T14:43:22.763Z,101548.84
2022-11-16T14:45:54.953Z,101548.25
2022-11-16T14:48:25.946Z,101549.81
2022-11-16T14:51:02.671Z,101550.81
2022-11-16T14:53:30.821Z,101557.59
2022-11-16T14:56:08.473Z,101552.22
2022-11-16T14:58:36.324Z,101555.16
2022-11-16T15:01:06.136Z,101555.22
2022-11-16T15:03:36.016Z,101548.81
2022-11-16T15:06:04.663Z,101545.03
2022-11-16T15:08:52.263Z,101549.81
2022-11-16T15:11:49.989Z,101550.13
2022-11-16T15:14:21.881Z,101554.53
2022-11-16T15:16:53.363Z,101550.63
2022-11-16T15:19:21.087Z,101553.94
2022-11-16T15:21:55.481Z,101552.34
2022-11-16T15:24:31.519Z,101548.47
2022-11-16T15:27:23.056Z,101553.41
2022-11-16T15:29:50.500Z,101550.75
2022-11-16T15:32:18.276Z,101556.91
2022-11-16T15:34:51.791Z,101548.81
2022-11-16T15:37:29.347Z,101541.41
2022-11-16T15:39:57.843Z,101547.31
2022-11-16T15:42:26.297Z,101555.31
2022-11-16T15:44:54.424Z,101552.34
2022-11-16T15:47:23.102Z,101551.97
2022-11-16T15:49:53.126Z,101553.19
2022-11-16T15:52:39.480Z,101549.75
2022-11-16T15:55:06.942Z,101555.34
2022-11-16T15:57:34.222Z,101550.81
2022-11-16T16:00:01.769Z,101545.19
2022-11-16T16:02:32.220Z,101544.56
2022-11-16T16:04:59.518Z,101539.97
2022-11-16T16:07:40.118Z,101547.91
2022-11-16T16:10:22.236Z,101544.72
2022-11-16T16:12:50.643Z,101538.13
2022-11-16T16:15:31.494Z,101537.91
2022-11-16T16:17:59.358Z,101543.56
2022-11-16T16:20:28.954Z,101537.69
2022-11-16T16:23:09.394Z,101540.94
2022-11-16T16:25:37.184Z,101543.00
2022-11-16T16:28:04.713Z,101546.31
2022-11-16T16:30:33.835Z,101546.63
2022-11-16T16:33:02.370Z,101547.94
2022-11-16T16:35:29.713Z,101551.75
2022-11-16T16:37:58.117Z,101550.72
2022-11-16T16:40:26.366Z,101551.84
2022-11-16T16:42:55.181Z,101546.00
2022-11-16T16:45:43.501Z,101552.19
2022-11-16T16:48:14.031Z,101543.94
2022-11-16T16:50:41.389Z,101558.22
2022-11-16T16:53:11.285Z,101550.38
2022-11-16T16:55:38.642Z,101555.34
2022-11-16T16:58:06.000Z,101555.25
2022-11-16T17:00:33.752Z,101553.88
2022-11-16T17:03:01.162Z,101549.06
2022-11-16T17:05:29.994Z,101550.81
2022-11-16T17:07:57.235Z,101551.69
2022-11-16T17:10:24.474Z,101559.13
2022-11-16T17:12:55.146Z,101557.06
2022-11-16T17:15:22.980Z,101555.16
2022-11-16T17:17:50.468Z,101557.81
2022-11-16T17:20:17.771Z,101562.06
2022-11-16T17:22:46.189Z,101562.31
2022-11-16T17:25:14.957Z,101562.75
2022-11-16T17:27:42.173Z,101581.44
2022-11-16T17:30:09.750Z,101572.28
2022-11-16T17:32:37.016Z,101578.47
2022-11-16T17:35:04.406Z,101578.97
2022-11-16T17:37:31.824Z,101579.72
2022-11-16T17:39:59.202Z,101579.41
2022-11-16T17:42:26.480Z,101586.13
2022-11-16T17:44:55.242Z,101584.75
2022-11-16T17:47:22.508Z,101589.66
2022-11-16T17:49:49.819Z,101580.84
2022-11-16T17:52:17.030Z,101581.63
2022-11-16T17:54:44.441Z,101579.28
2022-11-16T17:57:11.782Z,101588.84
2022-11-16T17:59:39.054Z,101587.22
2022-11-16T18:02:06.571Z,101579.97
2022-11-16T18:04:34.344Z,101574.47
2022-11-16T18:07:01.651Z,101582.16
2022-11-16T18:09:28.936Z,101578.88
2022-11-16T18:11:56.112Z,101580.84
2022-11-16T18:14:23.472Z,101594.69
2022-11-16T18:16:50.752Z,101585.63
2022-11-16T18:19:18.971Z,101587.97
2022-11-16T18:21:46.811Z,101589.66
2022-11-16T18:24:14.543Z,101596.63
2022-11-16T18:26:42.317Z,101585.38
2022-11-16T18:29:12.929Z,101592.66
2022-11-16T18:31:40.383Z,101590.94
2022-11-16T18:34:07.576Z,101579.19
2022-11-16T18:36:34.931Z,101580.38
2022-11-16T18:39:02.175Z,101578.97
2022-11-16T18:41:29.896Z,101581.72
2022-11-16T18:43:58.637Z,101577.81
2022-11-16T18:46:29.803Z,101569.50
2022-11-16T18:48:57.446Z,101570.78
2022-11-16T18:51:27.088Z,101572.31
2022-11-16T18:53:54.602Z,101575.28
2022-11-16T18:56:22.254Z,101567.53
2022-11-16T18:58:51.466Z,101565.91
2022-11-16T19:01:20.546Z,101565.53
2022-11-16T19:03:48.031Z,101577.53
2022-11-16T19:06:17.860Z,101583.69
2022-11-16T19:08:49.074Z,101583.25
2022-11-16T19:11:21.680Z,101574.59
2022-11-16T19:13:52.256Z,101579.03
2022-11-16T19:16:19.546Z,101577.53
2022-11-16T19:18:46.808Z,101579.88
2022-11-16T19:21:16.021Z,101574.47
2022-11-16T19:23:44.849Z,101581.03
2022-11-16T19:26:13.150Z,101583.78
2022-11-16T19:28:41.431Z,101575.88
2022-11-16T19:31:12.747Z,101580.31
2022-11-16T19:33:40.636Z,101570.69
2022-11-16T19:36:07.899Z,101576.28
2022-11-16T19:38:35.475Z,101562.31
2022-11-16T19:41:02.856Z,101571.78
2022-11-16T19:43:30.288Z,101568.94
2022-11-16T19:46:01.617Z,101570.34
2022-11-16T19:48:29.796Z,101559.22
2022-11-16T19:50:57.015Z,101574.75
2022-11-16T19:53:24.423Z,101558.66
2022-11-16T19:55:55.257Z,101572.16
2022-11-16T19:58:22.475Z,101561.75
2022-11-16T20:00:49.814Z,101558.22
2022-11-16T20:03:17.100Z,101551.25
2022-11-16T20:05:44.329Z,101554.16
2022-11-16T20:08:11.751Z,101561.00
2022-11-16T20:10:39.008Z,101551.56
2022-11-16T20:13:06.372Z,101554.41
2022-11-16T20:15:33.629Z,101558.66
2022-11-16T20:18:01.092Z,101558.53
2022-11-16T20:20:28.291Z,101562.09
2022-11-16T20:22:55.710Z,101559.03
2022-11-16T20:25:22.980Z,101564.25
2022-11-16T20:27:50.301Z,101556.25
2022-11-16T20:30:17.560Z,101551.47
2022-11-16T20:32:44.800Z,101552.28
2022-11-16T20:35:17.740Z,101547.66
2022-11-16T20:37:46.459Z,101548.84
2022-11-16T20:40:13.934Z,101553.81
2022-11-16T20:42:41.190Z,101550.56
2022-11-16T20:45:08.955Z,101549.69
2022-11-16T20:47:36.245Z,101552.66
2022-11-16T20:50:03.584Z,101565.78
2022-11-16T20:52:30.808Z,101554.94
2022-11-16T20:54:57.988Z,101555.34
2022-11-16T20:57:25.236Z,101562.16
2022-11-16T20:59:52.469Z,101558.75
2022-11-16T21:02:19.745Z,101555.53
2022-11-16T21:04:46.924Z,101551.41
2022-11-16T21:07:14.414Z,101554.00
2022-11-16T21:10:00.279Z,101561.47
2022-11-16T21:12:46.432Z,101547.16
2022-11-16T21:15:13.711Z,101554.38
2022-11-16T21:17:40.890Z,101564.13
2022-11-16T21:22:55.834Z,101560.53
2022-11-16T21:25:23.075Z,101550.63
2022-11-16T21:27:50.474Z,101553.81
2022-11-16T21:30:17.651Z,101554.25
2022-11-16T21:32:44.993Z,101557.91
2022-11-16T21:35:12.871Z,101550.09
2022-11-16T21:37:40.144Z,101553.03
2022-11-16T21:40:07.919Z,101547.38
2022-11-16T21:42:35.109Z,101550.81
2022-11-16T21:45:02.371Z,101553.56
2022-11-16T21:47:29.737Z,101555.16
2022-11-16T21:50:30.147Z,101551.75
2022-11-16T21:52:44.480Z,101561.75
2022-11-16T21:55:12.101Z,101556.00
2022-11-16T21:57:39.371Z,101565.94
2022-11-16T22:00:07.040Z,101555.59
2022-11-16T22:02:38.813Z,101568.34
2022-11-16T22:05:24.964Z,101566.00
2022-11-16T22:07:52.222Z,101569.59
2022-11-16T22:10:19.535Z,101569.22
2022-11-16T22:12:47.014Z,101584.00
2022-11-16T22:15:14.326Z,101587.47
2022-11-16T22:17:44.728Z,101590.50
2022-11-16T22:20:12.062Z,101584.59
2022-11-16T22:22:40.009Z,101580.84
2022-11-16T22:25:07.743Z,101590.66
2022-11-16T22:27:47.041Z,101588.50
2022-11-16T22:30:22.727Z,101589.41
2022-11-16T22:32:50.048Z,101588.91
2022-11-16T22:35:17.441Z,101590.78
2022-11-16T22:37:44.708Z,101594.50
2022-11-16T22:40:17.641Z,101596.41
2022-11-16T22:42:45.983Z,101588.03
2022-11-16T22:45:13.304Z,101596.19
2022-11-16T22:47:40.692Z,101595.22
2022-11-16T22:50:08.113Z,101593.22
2022-11-16T22:52:35.441Z,101590.72
2022-11-16T22:55:02.688Z,101591.94
2022-11-16T22:57:30.208Z,101599.81
2022-11-16T22:59:57.514Z,101583.53
2022-11-16T23:02:25.082Z,101589.78
2022-11-16T23:04:52.325Z,101589.47
2022-11-16T23:07:19.728Z,101600.47
2022-11-16T23:09:47.058Z,101593.16
2022-11-16T23:12:33.203Z,101590.38
2022-11-16T23:15:19.164Z,101590.09
2022-11-16T23:17:46.521Z,101591.47
2022-11-16T23:20:32.452Z,101591.22
2022-11-16T23:23:18.528Z,101588.13
2022-11-16T23:26:06.184Z,101579.78
2022-11-16T23:28:33.600Z,101586.19
2022-11-16T23:31:00.940Z,101585.44
2022-11-16T23:33:46.332Z,101572.44
2022-11-16T23:36:13.956Z,101580.09
2022-11-16T23:38:41.247Z,101578.88
2022-11-16T23:41:27.661Z,101579.94
2022-11-16T23:44:00.698Z,101570.88
2022-11-16T23:46:31.826Z,101569.19
2022-11-16T23:49:00.800Z,101571.00
2022-11-16T23:51:28.050Z,101573.00
2022-11-16T23:53:55.966Z,101575.75
2022-11-16T23:56:23.310Z,101575.38
2022-11-16T23:58:50.847Z,101570.44
